createdAt,value
2023-06-03T00:00:53.549Z,19.14
2023-06-03T00:01:53.589Z,19.17
2023-06-03T00:02:53.660Z,19.24
2023-06-03T00:03:53.702Z,19.13
2023-06-03T00:04:53.741Z,19.06
2023-06-03T00:05:53.655Z,18.99
2023-06-03T00:06:53.746Z,19.10
2023-06-03T00:07:53.750Z,19.11
2023-06-03T00:08:53.766Z,19.16
2023-06-03T00:09:53.774Z,19.14
2023-06-03T00:10:53.802Z,19.06
2023-06-03T00:11:53.799Z,19.07
2023-06-03T00:12:53.847Z,19.00
2023-06-03T00:13:53.876Z,18.96
2023-06-03T00:14:53.896Z,18.99
2023-06-03T00:15:53.896Z,18.92
2023-06-03T00:16:54.156Z,18.89
2023-06-03T00:17:53.994Z,18.67
2023-06-03T00:18:53.959Z,18.64
2023-06-03T00:19:53.995Z,18.60
2023-06-03T00:20:54.044Z,18.69
2023-06-03T00:21:54.052Z,18.70
2023-06-03T00:22:54.012Z,18.73
2023-06-03T00:23:54.081Z,18.82
2023-06-03T00:24:54.100Z,18.89
2023-06-03T00:25:54.136Z,18.77
2023-06-03T00:26:54.227Z,18.80
2023-06-03T00:27:54.190Z,18.74
2023-06-03T00:28:54.260Z,18.74
2023-06-03T00:29:54.231Z,18.73
2023-06-03T00:30:54.244Z,18.66
2023-06-03T00:31:54.345Z,18.74
2023-06-03T00:32:54.347Z,18.56
2023-06-03T00:33:54.435Z,18.57
2023-06-03T00:34:54.424Z,18.55
2023-06-03T00:35:54.449Z,18.39
2023-06-03T00:36:54.454Z,18.43
2023-06-03T00:37:54.466Z,18.46
2023-06-03T00:38:54.524Z,18.55
2023-06-03T00:39:54.500Z,18.37
2023-06-03T00:40:54.589Z,18.37
2023-06-03T00:41:54.589Z,18.56
2023-06-03T00:42:54.605Z,18.53
2023-06-03T00:43:54.645Z,18.57
2023-06-03T00:44:54.712Z,18.63
2023-06-03T00:45:54.785Z,18.74
2023-06-03T00:46:54.720Z,18.63
2023-06-03T00:47:54.835Z,18.74
2023-06-03T00:48:54.779Z,18.86
2023-06-03T00:49:54.811Z,18.94
2023-06-03T00:50:54.820Z,19.03
2023-06-03T00:51:54.867Z,19.02
2023-06-03T00:52:54.795Z,19.09
2023-06-03T00:53:54.837Z,19.11
2023-06-03T00:54:54.834Z,19.13
2023-06-03T00:55:54.906Z,19.16
2023-06-03T00:56:54.860Z,19.14
2023-06-03T00:57:54.866Z,19.13
2023-06-03T00:58:54.865Z,19.18
2023-06-03T00:59:54.932Z,19.21
2023-06-03T01:00:54.989Z,19.23
2023-06-03T01:01:55.023Z,19.26
2023-06-03T01:02:55.073Z,19.20
2023-06-03T01:03:54.999Z,19.24
2023-06-03T01:04:55.062Z,19.23
2023-06-03T01:05:55.060Z,19.28
2023-06-03T01:06:55.068Z,19.21
2023-06-03T01:07:55.064Z,18.92
2023-06-03T01:08:55.079Z,18.96
2023-06-03T01:09:55.139Z,18.97
2023-06-03T01:10:55.149Z,18.82
2023-06-03T01:11:55.266Z,18.84
2023-06-03T01:12:55.222Z,18.86
2023-06-03T01:13:55.216Z,18.90
2023-06-03T01:14:55.270Z,18.99
2023-06-03T01:15:55.265Z,19.02
2023-06-03T01:16:55.235Z,18.83
2023-06-03T01:17:55.260Z,18.89
2023-06-03T01:18:55.293Z,18.90
2023-06-03T01:19:55.307Z,18.87
2023-06-03T01:20:55.378Z,18.47
2023-06-03T01:21:55.420Z,18.47
2023-06-03T01:22:55.404Z,18.32
2023-06-03T01:23:55.542Z,18.19
2023-06-03T01:24:55.499Z,17.98
2023-06-03T01:25:55.498Z,18.17
2023-06-03T01:26:55.612Z,18.39
2023-06-03T01:27:55.565Z,18.22
2023-06-03T01:28:55.626Z,18.32
2023-06-03T01:29:55.635Z,18.32
2023-06-03T01:30:55.724Z,18.36
2023-06-03T01:31:55.698Z,18.37
2023-06-03T01:32:55.745Z,18.33
2023-06-03T01:33:55.724Z,18.02
2023-06-03T01:34:55.722Z,18.09
2023-06-03T01:35:55.808Z,18.17
2023-06-03T01:36:55.884Z,18.20
2023-06-03T01:37:55.839Z,18.31
2023-06-03T01:38:55.904Z,18.36
2023-06-03T01:39:55.957Z,18.35
2023-06-03T01:40:56.023Z,18.42
2023-06-03T01:41:56.031Z,18.39
2023-06-03T01:42:56.035Z,18.39
2023-06-03T01:43:56.049Z,18.33
2023-06-03T01:44:56.047Z,18.32
2023-06-03T01:45:56.104Z,18.32
2023-06-03T01:46:56.141Z,18.33
2023-06-03T01:47:56.147Z,18.31
2023-06-03T01:48:56.106Z,18.35
2023-06-03T01:49:56.192Z,18.37
2023-06-03T01:50:56.183Z,18.50
2023-06-03T01:51:56.235Z,18.53
2023-06-03T01:52:56.250Z,18.42
2023-06-03T01:53:56.247Z,18.20
2023-06-03T01:54:56.268Z,18.26
2023-06-03T01:55:56.255Z,18.20
2023-06-03T01:56:56.332Z,18.17
2023-06-03T01:57:56.349Z,18.15
2023-06-03T01:58:56.341Z,18.20
2023-06-03T01:59:56.394Z,18.20
2023-06-03T02:00:56.433Z,18.23
2023-06-03T02:01:56.520Z,18.29
2023-06-03T02:02:56.510Z,18.32
2023-06-03T02:03:56.490Z,18.35
2023-06-03T02:04:56.529Z,18.37
2023-06-03T02:05:56.543Z,18.37
2023-06-03T02:06:56.605Z,18.37
2023-06-03T02:07:56.594Z,18.42
2023-06-03T02:08:56.606Z,18.37
2023-06-03T02:09:56.631Z,18.32
2023-06-03T02:10:56.641Z,18.36
2023-06-03T02:11:56.698Z,18.39
2023-06-03T02:12:56.691Z,18.31
2023-06-03T02:13:56.714Z,18.28
2023-06-03T02:14:56.760Z,17.79
2023-06-03T02:15:56.765Z,17.99
2023-06-03T02:16:56.998Z,18.03
2023-06-03T02:17:56.911Z,17.96
2023-06-03T02:18:56.843Z,18.05
2023-06-03T02:19:56.841Z,17.88
2023-06-03T02:20:56.907Z,17.99
2023-06-03T02:21:56.972Z,17.93
2023-06-03T02:22:56.975Z,17.89
2023-06-03T02:23:57.169Z,17.82
2023-06-03T02:24:57.029Z,17.53
2023-06-03T02:25:57.064Z,17.74
2023-06-03T02:26:57.103Z,17.75
2023-06-03T02:27:57.164Z,17.76
2023-06-03T02:28:57.181Z,17.86
2023-06-03T02:29:57.216Z,17.90
2023-06-03T02:30:57.227Z,17.98
2023-06-03T02:31:57.375Z,18.05
2023-06-03T02:32:57.305Z,18.06
2023-06-03T02:33:57.301Z,18.13
2023-06-03T02:34:57.345Z,18.20
2023-06-03T02:35:57.375Z,17.99
2023-06-03T02:36:57.432Z,17.74
2023-06-03T02:37:57.480Z,17.93
2023-06-03T02:38:57.543Z,17.98
2023-06-03T02:39:57.544Z,18.09
2023-06-03T02:40:57.549Z,18.12
2023-06-03T02:41:57.577Z,18.17
2023-06-03T02:42:57.592Z,18.17
2023-06-03T02:43:57.628Z,18.17
2023-06-03T02:44:57.695Z,18.17
2023-06-03T02:45:57.756Z,18.13
2023-06-03T02:46:57.754Z,18.15
2023-06-03T02:47:57.866Z,18.11
2023-06-03T02:48:57.803Z,17.72
2023-06-03T02:49:57.829Z,17.61
2023-06-03T02:50:57.874Z,17.62
2023-06-03T02:51:57.881Z,17.52
2023-06-03T02:52:57.889Z,17.41
2023-06-03T02:53:57.904Z,17.39
2023-06-03T02:54:57.910Z,17.22
2023-06-03T02:55:57.909Z,17.27
2023-06-03T02:56:57.969Z,17.25
2023-06-03T02:57:57.985Z,16.74
2023-06-03T02:58:58.043Z,16.48
2023-06-03T02:59:58.043Z,16.71
2023-06-03T03:00:58.037Z,16.88
2023-06-03T03:01:58.133Z,17.08
2023-06-03T03:02:58.208Z,17.18
2023-06-03T03:03:58.203Z,17.11
2023-06-03T03:04:58.160Z,17.15
2023-06-03T03:05:58.172Z,17.03
2023-06-03T03:06:58.237Z,17.18
2023-06-03T03:07:58.292Z,17.17
2023-06-03T03:08:58.449Z,17.04
2023-06-03T03:09:58.377Z,16.96
2023-06-03T03:10:58.393Z,17.11
2023-06-03T03:11:58.500Z,17.25
2023-06-03T03:12:58.433Z,17.21
2023-06-03T03:13:58.478Z,17.27
2023-06-03T03:14:58.475Z,17.24
2023-06-03T03:15:58.551Z,17.22
2023-06-03T03:16:58.565Z,17.28
2023-06-03T03:17:58.613Z,17.21
2023-06-03T03:18:58.589Z,17.21
2023-06-03T03:19:58.590Z,17.07
2023-06-03T03:20:58.585Z,17.11
2023-06-03T03:21:58.646Z,17.19
2023-06-03T03:22:58.656Z,17.18
2023-06-03T03:23:58.749Z,17.21
2023-06-03T03:24:58.694Z,17.11
2023-06-03T03:25:58.831Z,17.17
2023-06-03T03:26:58.814Z,17.18
2023-06-03T03:27:58.804Z,17.21
2023-06-03T03:28:58.821Z,17.25
2023-06-03T03:29:58.812Z,17.24
2023-06-03T03:30:58.868Z,17.19
2023-06-03T03:31:58.933Z,17.19
2023-06-03T03:32:58.968Z,17.24
2023-06-03T03:33:58.989Z,17.27
2023-06-03T03:34:59.047Z,17.28
2023-06-03T03:35:58.987Z,17.28
2023-06-03T03:36:59.064Z,17.29
2023-06-03T03:37:59.057Z,17.19
2023-06-03T03:38:59.072Z,17.05
2023-06-03T03:39:59.081Z,16.96
2023-06-03T03:40:59.083Z,16.82
2023-06-03T03:41:59.145Z,17.00
2023-06-03T03:42:59.176Z,17.17
2023-06-03T03:43:59.221Z,17.29
2023-06-03T03:44:59.221Z,17.35
2023-06-03T03:45:59.264Z,17.38
2023-06-03T03:46:59.258Z,17.35
2023-06-03T03:47:59.296Z,17.46
2023-06-03T03:48:59.277Z,17.49
2023-06-03T03:49:59.368Z,17.51
2023-06-03T03:50:59.400Z,17.53
2023-06-03T03:51:59.406Z,17.60
2023-06-03T03:52:59.371Z,17.62
2023-06-03T03:53:59.374Z,17.68
2023-06-03T03:54:59.387Z,17.72
2023-06-03T03:55:59.437Z,17.79
2023-06-03T03:56:59.450Z,17.79
2023-06-03T03:57:59.474Z,17.88
2023-06-03T03:58:59.521Z,17.88
2023-06-03T03:59:59.561Z,17.85
2023-06-03T04:00:59.632Z,17.95
2023-06-03T04:01:59.665Z,17.96
2023-06-03T04:02:59.705Z,17.93
2023-06-03T04:03:59.750Z,17.98
2023-06-03T04:04:59.769Z,17.99
2023-06-03T04:05:59.774Z,18.02
2023-06-03T04:06:59.789Z,17.81
2023-06-03T04:07:59.832Z,17.84
2023-06-03T04:08:59.824Z,17.85
2023-06-03T04:09:59.864Z,17.76
2023-06-03T04:10:59.951Z,17.78
2023-06-03T04:12:00.008Z,17.69
2023-06-03T04:13:00.034Z,17.78
2023-06-03T04:14:00.098Z,17.76
2023-06-03T04:15:00.163Z,17.88
2023-06-03T04:16:00.168Z,17.95
2023-06-03T04:17:00.179Z,17.98
2023-06-03T04:18:00.269Z,17.86
2023-06-03T04:19:00.234Z,17.93
2023-06-03T04:20:00.307Z,17.95
2023-06-03T04:21:00.320Z,17.99
2023-06-03T04:22:00.339Z,18.03
2023-06-03T04:23:00.324Z,18.00
2023-06-03T04:24:00.522Z,18.15
2023-06-03T04:25:00.463Z,18.22
2023-06-03T04:26:00.468Z,18.23
2023-06-03T04:27:00.545Z,18.28
2023-06-03T04:28:00.494Z,18.28
2023-06-03T04:29:00.542Z,18.36
2023-06-03T04:30:00.580Z,18.29
2023-06-03T04:31:00.590Z,18.33
2023-06-03T04:32:00.741Z,18.36
2023-06-03T04:33:00.703Z,18.33
2023-06-03T04:34:00.731Z,18.35
2023-06-03T04:35:00.771Z,18.40
2023-06-03T04:36:00.850Z,18.42
2023-06-03T04:37:00.840Z,18.42
2023-06-03T04:38:00.869Z,18.43
2023-06-03T04:39:00.910Z,18.45
2023-06-03T04:40:00.906Z,18.45
2023-06-03T04:41:00.950Z,18.53
2023-06-03T04:42:00.996Z,18.70
2023-06-03T04:43:00.985Z,18.70
2023-06-03T04:44:01.015Z,18.67
2023-06-03T04:45:01.031Z,18.87
2023-06-03T04:46:01.036Z,18.93
2023-06-03T04:47:01.226Z,18.90
2023-06-03T04:48:01.163Z,19.04
2023-06-03T04:49:01.112Z,18.89
2023-06-03T04:50:01.170Z,18.60
2023-06-03T04:51:01.175Z,18.69
2023-06-03T04:52:01.197Z,18.69
2023-06-03T04:53:01.256Z,19.00
2023-06-03T04:54:01.278Z,19.04
2023-06-03T04:55:01.302Z,19.26
2023-06-03T04:56:01.341Z,19.51
2023-06-03T04:57:01.374Z,19.58
2023-06-03T04:58:01.366Z,19.82
2023-06-03T04:59:01.400Z,20.04
2023-06-03T05:00:01.428Z,20.22
2023-06-03T05:01:01.434Z,20.39
2023-06-03T05:02:01.541Z,20.55
2023-06-03T05:03:01.562Z,20.74
2023-06-03T05:04:01.610Z,20.82
2023-06-03T05:05:01.535Z,20.92
2023-06-03T05:06:01.543Z,21.07
2023-06-03T05:07:01.591Z,21.19
2023-06-03T05:08:01.619Z,21.32
2023-06-03T05:09:01.683Z,20.86
2023-06-03T05:10:01.655Z,20.79
2023-06-03T05:11:01.720Z,20.92
2023-06-03T05:12:01.703Z,21.05
2023-06-03T05:13:01.711Z,20.95
2023-06-03T05:14:01.799Z,21.23
2023-06-03T05:15:01.837Z,20.72
2023-06-03T05:16:01.874Z,20.54
2023-06-03T05:17:01.953Z,20.56
2023-06-03T05:18:01.930Z,20.02
2023-06-03T05:19:02.672Z,20.08
2023-06-03T05:20:01.926Z,20.17
2023-06-03T05:21:01.957Z,19.53
2023-06-03T05:22:01.989Z,19.71
2023-06-03T05:23:02.007Z,20.35
2023-06-03T05:24:02.080Z,20.59
2023-06-03T05:25:02.480Z,20.62
2023-06-03T05:26:02.020Z,20.51
2023-06-03T05:27:02.219Z,21.09
2023-06-03T05:28:04.539Z,21.40
2023-06-03T05:29:02.115Z,21.66
2023-06-03T05:30:02.099Z,21.90
2023-06-03T05:31:02.118Z,22.13
2023-06-03T05:32:02.154Z,22.40
2023-06-03T05:33:02.212Z,22.61
2023-06-03T05:34:02.084Z,22.80
2023-06-03T05:35:02.093Z,23.08
2023-06-03T05:36:02.048Z,22.42
2023-06-03T05:37:02.049Z,21.76
2023-06-03T05:38:02.059Z,22.06
2023-06-03T05:39:02.063Z,22.46
2023-06-03T05:40:02.079Z,22.50
2023-06-03T05:41:02.010Z,21.90
2023-06-03T05:42:02.000Z,22.03
2023-06-03T05:43:01.997Z,22.30
2023-06-03T05:44:01.985Z,22.21
2023-06-03T05:45:02.002Z,22.46
2023-06-03T05:46:02.078Z,22.40
2023-06-03T05:47:01.940Z,21.99
2023-06-03T05:48:02.004Z,22.60
2023-06-03T05:49:01.971Z,22.47
2023-06-03T05:50:01.941Z,22.61
2023-06-03T05:51:01.942Z,22.56
2023-06-03T05:52:01.962Z,23.15
2023-06-03T05:53:01.947Z,23.40
2023-06-03T05:54:01.921Z,23.64
2023-06-03T05:55:01.939Z,23.86
2023-06-03T05:56:01.980Z,23.98
2023-06-03T05:57:01.916Z,24.04
2023-06-03T05:58:01.882Z,24.31
2023-06-03T05:59:01.894Z,24.45
2023-06-03T06:00:01.867Z,24.52
2023-06-03T06:01:01.899Z,24.65
2023-06-03T06:02:01.865Z,24.67
2023-06-03T06:03:01.963Z,23.94
2023-06-03T06:04:01.888Z,23.61
2023-06-03T06:05:01.865Z,22.67
2023-06-03T06:06:01.832Z,22.98
2023-06-03T06:07:01.842Z,22.58
2023-06-03T06:08:01.853Z,22.09
2023-06-03T06:09:01.810Z,22.43
2023-06-03T06:10:01.820Z,22.72
2023-06-03T06:11:01.873Z,22.63
2023-06-03T06:12:01.769Z,23.32
2023-06-03T06:13:01.770Z,23.08
2023-06-03T06:14:01.776Z,23.55
2023-06-03T06:15:01.724Z,23.91
2023-06-03T06:16:01.931Z,24.35
2023-06-03T06:17:01.760Z,23.75
2023-06-03T06:18:01.790Z,23.91
2023-06-03T06:19:01.759Z,23.07
2023-06-03T06:20:01.738Z,23.88
2023-06-03T06:21:01.731Z,24.45
2023-06-03T06:22:01.726Z,24.72
2023-06-03T06:23:01.784Z,24.85
2023-06-03T06:24:01.785Z,25.22
2023-06-03T06:25:01.696Z,25.33
2023-06-03T06:26:01.703Z,25.69
2023-06-03T06:27:01.664Z,26.08
2023-06-03T06:28:01.669Z,26.42
2023-06-03T06:29:01.653Z,26.54
2023-06-03T06:30:01.683Z,26.61
2023-06-03T06:31:01.699Z,27.08
2023-06-03T06:32:01.705Z,27.12
2023-06-03T06:33:01.695Z,27.56
2023-06-03T06:34:01.656Z,27.70
2023-06-03T06:35:01.614Z,27.63
2023-06-03T06:36:01.599Z,28.15
2023-06-03T06:37:01.615Z,28.50
2023-06-03T06:38:01.690Z,28.27
2023-06-03T06:39:01.684Z,28.57
2023-06-03T06:40:01.793Z,28.81
2023-06-03T06:41:01.769Z,29.08
2023-06-03T06:42:01.844Z,29.28
2023-06-03T06:43:01.820Z,29.40
2023-06-03T06:44:01.897Z,29.68
2023-06-03T06:45:01.963Z,29.92
2023-06-03T06:46:01.951Z,30.12
2023-06-03T06:47:01.972Z,30.04
2023-06-03T06:48:02.082Z,30.61
2023-06-03T06:49:02.020Z,30.56
2023-06-03T06:50:02.109Z,30.78
2023-06-03T06:51:02.110Z,30.78
2023-06-03T06:52:02.110Z,31.08
2023-06-03T06:53:02.160Z,31.03
2023-06-03T06:54:02.170Z,31.23
2023-06-03T06:55:02.257Z,31.19
2023-06-03T06:56:02.259Z,31.67
2023-06-03T06:57:02.244Z,31.76
2023-06-03T06:58:02.287Z,31.96
2023-06-03T06:59:02.310Z,31.66
2023-06-03T07:00:02.324Z,32.10
2023-06-03T07:01:02.438Z,32.22
2023-06-03T07:02:02.416Z,32.19
2023-06-03T07:03:02.578Z,32.09
2023-06-03T07:04:02.540Z,32.01
2023-06-03T07:05:02.516Z,32.04
2023-06-03T07:06:02.564Z,31.87
2023-06-03T07:07:02.579Z,32.46
2023-06-03T07:08:02.620Z,32.47
2023-06-03T07:09:02.673Z,31.40
2023-06-03T07:10:02.671Z,31.52
2023-06-03T07:11:04.960Z,31.66
2023-06-03T07:12:02.810Z,31.53
2023-06-03T07:13:02.804Z,31.54
2023-06-03T07:14:02.826Z,31.87
2023-06-03T07:15:02.860Z,31.28
2023-06-03T07:16:04.308Z,31.90
2023-06-03T07:17:03.084Z,31.56
2023-06-03T07:18:02.995Z,32.20
2023-06-03T07:19:02.872Z,32.57
2023-06-03T07:20:02.973Z,32.66
2023-06-03T07:21:03.014Z,32.04
2023-06-03T07:22:03.022Z,32.19
2023-06-03T07:23:03.067Z,32.66
2023-06-03T07:24:03.144Z,32.66
2023-06-03T07:25:03.121Z,32.90
2023-06-03T07:26:03.157Z,32.94
2023-06-03T07:27:03.234Z,33.17
2023-06-03T07:28:03.224Z,32.78
2023-06-03T07:29:03.253Z,32.90
2023-06-03T07:30:03.320Z,32.20
2023-06-03T07:31:04.820Z,31.80
2023-06-03T07:32:03.389Z,31.90
2023-06-03T07:33:03.395Z,32.28
2023-06-03T07:34:03.306Z,32.43
2023-06-03T07:35:03.321Z,32.09
2023-06-03T07:36:03.318Z,31.52
2023-06-03T07:37:03.284Z,32.20
2023-06-03T07:38:03.329Z,32.22
2023-06-03T07:39:03.308Z,32.01
2023-06-03T07:40:10.869Z,32.41
2023-06-03T07:41:03.549Z,32.56
2023-06-03T07:42:03.291Z,32.61
2023-06-03T07:43:03.295Z,32.87
2023-06-03T07:44:03.266Z,33.20
2023-06-03T07:45:03.275Z,33.37
2023-06-03T07:46:03.264Z,33.31
2023-06-03T07:47:03.228Z,33.65
2023-06-03T07:48:03.283Z,33.62
2023-06-03T07:49:03.264Z,33.62
2023-06-03T07:50:03.216Z,33.62
2023-06-03T07:51:03.368Z,33.64
2023-06-03T07:52:03.173Z,32.69
2023-06-03T07:53:03.255Z,33.15
2023-06-03T07:54:03.198Z,33.60
2023-06-03T07:55:03.191Z,33.74
2023-06-03T07:56:03.222Z,33.85
2023-06-03T07:57:03.210Z,33.81
2023-06-03T07:58:03.169Z,33.95
2023-06-03T07:59:03.186Z,33.94
2023-06-03T08:00:03.160Z,33.41
2023-06-03T08:01:03.260Z,33.89
2023-06-03T08:02:03.215Z,33.97
2023-06-03T08:03:03.395Z,34.15
2023-06-03T08:04:03.257Z,34.26
2023-06-03T08:05:03.266Z,34.55
2023-06-03T08:06:03.344Z,34.62
2023-06-03T08:07:03.614Z,34.79
2023-06-03T08:08:03.391Z,34.82
2023-06-03T08:09:03.422Z,34.01
2023-06-03T08:10:03.433Z,33.45
2023-06-03T08:11:03.575Z,30.66
2023-06-03T08:12:04.424Z,30.75
2023-06-03T08:13:03.567Z,31.19
2023-06-03T08:14:03.566Z,30.90
2023-06-03T08:15:03.606Z,31.96
2023-06-03T08:16:03.694Z,32.33
2023-06-03T08:17:03.650Z,31.26
2023-06-03T08:18:03.760Z,31.05
2023-06-03T08:19:03.730Z,30.52
2023-06-03T08:20:03.751Z,31.70
2023-06-03T08:21:11.452Z,31.29
2023-06-03T08:22:03.803Z,31.25
2023-06-03T08:23:03.806Z,30.66
2023-06-03T08:24:04.038Z,31.22
2023-06-03T08:25:03.739Z,31.50
2023-06-03T08:26:03.736Z,31.25
2023-06-03T08:27:03.751Z,31.90
2023-06-03T08:28:03.780Z,31.36
2023-06-03T08:29:03.852Z,29.28
2023-06-03T08:30:03.758Z,29.81
2023-06-03T08:31:03.976Z,30.39
2023-06-03T08:32:03.933Z,28.94
2023-06-03T08:33:03.732Z,29.57
2023-06-03T08:34:03.702Z,29.67
2023-06-03T08:35:03.686Z,29.34
2023-06-03T08:36:03.691Z,29.67
2023-06-03T08:37:03.662Z,30.54
2023-06-03T08:38:03.708Z,30.34
2023-06-03T08:39:03.706Z,30.95
2023-06-03T08:40:03.641Z,30.96
2023-06-03T08:41:03.949Z,28.74
2023-06-03T08:42:03.674Z,29.78
2023-06-03T08:43:03.655Z,30.63
2023-06-03T08:44:03.634Z,30.46
2023-06-03T08:45:03.643Z,29.80
2023-06-03T08:46:03.718Z,30.72
2023-06-03T08:47:03.763Z,30.07
2023-06-03T08:48:03.826Z,29.14
2023-06-03T08:49:03.746Z,28.06
2023-06-03T08:50:03.808Z,28.74
2023-06-03T08:51:04.022Z,29.91
2023-06-03T08:52:03.892Z,30.68
2023-06-03T08:53:03.898Z,30.92
2023-06-03T08:54:03.902Z,31.76
2023-06-03T08:55:03.958Z,31.97
2023-06-03T08:56:04.007Z,30.85
2023-06-03T08:57:04.076Z,31.37
2023-06-03T08:58:04.069Z,31.96
2023-06-03T08:59:04.142Z,32.38
2023-06-03T09:00:04.888Z,32.47
2023-06-03T09:01:04.481Z,32.80
2023-06-03T09:02:04.251Z,30.76
2023-06-03T09:03:04.302Z,30.39
2023-06-03T09:04:04.278Z,29.88
2023-06-03T09:05:04.301Z,31.16
2023-06-03T09:06:04.251Z,30.35
2023-06-03T09:07:04.332Z,29.38
2023-06-03T09:08:04.368Z,29.84
2023-06-03T09:09:04.394Z,29.77
2023-06-03T09:10:04.434Z,29.98
2023-06-03T09:11:04.693Z,30.78
2023-06-03T09:12:04.520Z,30.08
2023-06-03T09:13:04.552Z,30.32
2023-06-03T09:14:04.530Z,30.75
2023-06-03T09:15:04.575Z,29.92
2023-06-03T09:16:04.614Z,31.08
2023-06-03T09:17:04.643Z,30.76
2023-06-03T09:18:04.728Z,31.46
2023-06-03T09:19:04.701Z,31.89
2023-06-03T09:20:04.752Z,31.29
2023-06-03T09:21:05.044Z,31.56
2023-06-03T09:22:04.823Z,32.04
2023-06-03T09:23:04.795Z,32.14
2023-06-03T09:24:04.889Z,32.93
2023-06-03T09:25:04.854Z,32.87
2023-06-03T09:26:04.900Z,32.48
2023-06-03T09:27:04.920Z,32.71
2023-06-03T09:28:04.950Z,32.67
2023-06-03T09:29:05.067Z,32.93
2023-06-03T09:30:05.081Z,32.23
2023-06-03T09:31:05.432Z,32.83
2023-06-03T09:32:05.138Z,33.28
2023-06-03T09:33:05.171Z,33.95
2023-06-03T09:34:05.177Z,33.14
2023-06-03T09:35:05.169Z,32.61
2023-06-03T09:36:05.222Z,32.85
2023-06-03T09:37:05.241Z,33.71
2023-06-03T09:38:05.272Z,32.98
2023-06-03T09:39:05.288Z,32.09
2023-06-03T09:40:05.281Z,32.19
2023-06-03T09:41:05.532Z,32.43
2023-06-03T09:42:05.428Z,33.28
2023-06-03T09:43:05.408Z,33.57
2023-06-03T09:44:05.471Z,33.92
2023-06-03T09:45:05.500Z,33.05
2023-06-03T09:46:05.556Z,33.27
2023-06-03T09:47:05.624Z,34.08
2023-06-03T09:48:05.689Z,34.78
2023-06-03T09:49:05.606Z,34.70
2023-06-03T09:50:05.631Z,34.19
2023-06-03T09:51:05.826Z,34.65
2023-06-03T09:52:05.709Z,34.59
2023-06-03T09:53:05.745Z,34.61
2023-06-03T09:54:05.757Z,33.87
2023-06-03T09:55:05.776Z,33.88
2023-06-03T09:56:05.777Z,33.89
2023-06-03T09:57:05.805Z,33.94
2023-06-03T09:58:05.951Z,33.69
2023-06-03T09:59:05.876Z,34.31
2023-06-03T10:00:05.891Z,34.23
2023-06-03T10:01:06.232Z,34.55
2023-06-03T10:02:06.029Z,33.91
2023-06-03T10:03:06.035Z,34.58
2023-06-03T10:04:06.033Z,34.22
2023-06-03T10:05:06.028Z,32.44
2023-06-03T10:06:06.104Z,33.57
2023-06-03T10:07:06.149Z,33.69
2023-06-03T10:08:06.170Z,32.85
2023-06-03T10:09:06.255Z,33.08
2023-06-03T10:10:06.237Z,31.22
2023-06-03T10:11:06.468Z,32.87
2023-06-03T10:12:06.273Z,30.16
2023-06-03T10:13:06.341Z,30.72
2023-06-03T10:14:06.353Z,31.03
2023-06-03T10:15:06.410Z,29.98
2023-06-03T10:16:06.407Z,28.86
2023-06-03T10:17:06.503Z,29.18
2023-06-03T10:18:06.886Z,28.22
2023-06-03T10:19:06.491Z,27.68
2023-06-03T10:20:06.561Z,27.93
2023-06-03T10:21:06.693Z,28.56
2023-06-03T10:22:06.567Z,28.89
2023-06-03T10:23:06.630Z,29.27
2023-06-03T10:24:06.715Z,29.44
2023-06-03T10:25:06.677Z,29.80
2023-06-03T10:26:06.754Z,29.01
2023-06-03T10:27:06.819Z,28.53
2023-06-03T10:28:06.891Z,28.66
2023-06-03T10:29:06.876Z,29.04
2023-06-03T10:30:08.615Z,29.16
2023-06-03T10:31:07.451Z,28.44
2023-06-03T10:32:06.941Z,28.16
2023-06-03T10:33:06.991Z,29.14
2023-06-03T10:34:07.017Z,30.00
2023-06-03T10:35:07.053Z,29.41
2023-06-03T10:36:07.059Z,30.32
2023-06-03T10:37:07.081Z,29.41
2023-06-03T10:38:07.154Z,29.69
2023-06-03T10:39:07.136Z,30.42
2023-06-03T10:40:07.154Z,30.08
2023-06-03T10:41:07.391Z,31.12
2023-06-03T10:42:08.075Z,30.95
2023-06-03T10:43:07.248Z,29.16
2023-06-03T10:44:07.286Z,27.79
2023-06-03T10:45:07.347Z,28.37
2023-06-03T10:46:07.360Z,28.86
2023-06-03T10:47:07.364Z,29.51
2023-06-03T10:48:09.191Z,29.53
2023-06-03T10:49:07.413Z,30.42
2023-06-03T10:50:07.433Z,30.90
2023-06-03T10:51:07.631Z,31.56
2023-06-03T10:52:07.544Z,31.94
2023-06-03T10:53:07.618Z,31.66
2023-06-03T10:54:07.592Z,31.23
2023-06-03T10:55:07.694Z,30.66
2023-06-03T10:56:07.677Z,30.65
2023-06-03T10:57:07.850Z,30.02
2023-06-03T10:58:07.728Z,30.78
2023-06-03T10:59:07.744Z,30.93
2023-06-03T11:00:08.415Z,29.89
2023-06-03T11:01:08.020Z,31.28
2023-06-03T11:02:07.903Z,29.94
2023-06-03T11:03:07.908Z,30.43
2023-06-03T11:04:07.892Z,30.24
2023-06-03T11:05:07.946Z,30.11
2023-06-03T11:06:07.936Z,30.21
2023-06-03T11:07:08.009Z,29.37
2023-06-03T11:08:08.043Z,28.93
2023-06-03T11:09:08.020Z,27.96
2023-06-03T11:10:08.083Z,28.67
2023-06-03T11:11:08.085Z,28.91
2023-06-03T11:12:08.147Z,29.14
2023-06-03T11:13:08.151Z,28.35
2023-06-03T11:14:08.137Z,29.30
2023-06-03T11:15:08.157Z,30.34
2023-06-03T11:16:08.239Z,30.73
2023-06-03T11:17:08.225Z,30.26
2023-06-03T11:18:08.301Z,30.04
2023-06-03T11:19:09.913Z,27.99
2023-06-03T11:20:10.512Z,27.48
2023-06-03T11:21:08.440Z,27.19
2023-06-03T11:22:08.347Z,28.12
2023-06-03T11:23:08.420Z,27.56
2023-06-03T11:24:08.426Z,27.95
2023-06-03T11:25:08.476Z,28.44
2023-06-03T11:26:08.496Z,29.27
2023-06-03T11:27:08.548Z,29.55
2023-06-03T11:28:08.593Z,29.43
2023-06-03T11:29:08.611Z,29.98
2023-06-03T11:30:08.665Z,29.11
2023-06-03T11:31:09.120Z,30.00
2023-06-03T11:32:08.731Z,30.65
2023-06-03T11:33:08.804Z,31.46
2023-06-03T11:34:08.764Z,31.20
2023-06-03T11:35:08.810Z,30.86
2023-06-03T11:36:08.792Z,30.46
2023-06-03T11:37:08.841Z,30.29
2023-06-03T11:38:08.868Z,31.02
2023-06-03T11:39:08.926Z,31.93
2023-06-03T11:40:08.927Z,31.90
2023-06-03T11:41:08.919Z,30.85
2023-06-03T11:42:08.951Z,30.79
2023-06-03T11:43:09.005Z,31.00
2023-06-03T11:44:10.174Z,30.75
2023-06-03T11:45:09.015Z,31.33
2023-06-03T11:46:09.050Z,31.91
2023-06-03T11:47:09.014Z,30.39
2023-06-03T11:48:09.135Z,28.39
2023-06-03T11:49:09.000Z,28.19
2023-06-03T11:50:08.948Z,29.13
2023-06-03T11:51:09.145Z,29.51
2023-06-03T11:52:08.999Z,30.29
2023-06-03T11:53:08.978Z,30.72
2023-06-03T11:54:08.967Z,30.82
2023-06-03T11:55:08.945Z,31.03
2023-06-03T11:56:08.918Z,30.97
2023-06-03T11:57:09.009Z,30.61
2023-06-03T11:58:08.926Z,31.09
2023-06-03T11:59:08.926Z,31.22
2023-06-03T12:00:08.954Z,31.73
2023-06-03T12:01:08.923Z,31.97
2023-06-03T12:02:08.908Z,32.83
2023-06-03T12:03:08.953Z,31.75
2023-06-03T12:04:08.935Z,31.15
2023-06-03T12:05:08.908Z,31.57
2023-06-03T12:06:08.846Z,32.20
2023-06-03T12:07:08.888Z,32.14
2023-06-03T12:08:08.891Z,31.20
2023-06-03T12:09:08.850Z,31.12
2023-06-03T12:10:08.792Z,31.15
2023-06-03T12:11:08.814Z,29.71
2023-06-03T12:12:08.888Z,29.54
2023-06-03T12:13:08.861Z,29.50
2023-06-03T12:14:09.168Z,30.54
2023-06-03T12:15:08.767Z,30.76
2023-06-03T12:16:08.825Z,31.50
2023-06-03T12:17:08.782Z,31.60
2023-06-03T12:18:08.800Z,29.60
2023-06-03T12:19:08.747Z,29.37
2023-06-03T12:20:08.757Z,30.43
2023-06-03T12:21:11.715Z,29.54
2023-06-03T12:22:08.786Z,30.24
2023-06-03T12:23:08.785Z,30.56
2023-06-03T12:24:08.785Z,30.68
2023-06-03T12:25:08.798Z,31.05
2023-06-03T12:26:08.736Z,31.02
2023-06-03T12:27:08.720Z,30.69
2023-06-03T12:28:08.696Z,31.25
2023-06-03T12:29:08.721Z,31.32
2023-06-03T12:30:08.687Z,32.01
2023-06-03T12:31:08.843Z,31.42
2023-06-03T12:32:08.768Z,32.17
2023-06-03T12:33:08.756Z,31.23
2023-06-03T12:34:08.661Z,31.80
2023-06-03T12:35:08.652Z,32.24
2023-06-03T12:36:08.672Z,32.31
2023-06-03T12:37:08.608Z,31.89
2023-06-03T12:38:08.681Z,32.74
2023-06-03T12:39:08.634Z,33.10
2023-06-03T12:40:08.653Z,33.47
2023-06-03T12:41:08.599Z,31.16
2023-06-03T12:42:08.599Z,31.77
2023-06-03T12:43:08.604Z,32.06
2023-06-03T12:44:08.612Z,31.56
2023-06-03T12:45:08.688Z,31.66
2023-06-03T12:46:08.583Z,30.11
2023-06-03T12:47:09.813Z,30.18
2023-06-03T12:48:08.636Z,29.27
2023-06-03T12:49:08.564Z,28.81
2023-06-03T12:50:08.553Z,29.33
2023-06-03T12:51:08.564Z,29.63
2023-06-03T12:52:20.293Z,29.64
2023-06-03T12:53:09.545Z,29.21